ENEVENKB

Guest
Details From ENEV - EVENES
To ENKB - KVERNBERGET
Flight Number -
Tags generated
Created
Modified
Stats Distance 390 nm / 722 km
Max Altitude 34,000 ft / 10,363 m
Waypoints 5
Social Downloads 5
Likes 0
Share VATSIM

Download

Looking for another format? Having issues loading an existing format? Contact us
Advertisement - Login to hide

Notes

Basic altitude profile: - Ascent Rate: 2500ft/min - Ascent Speed: 250kts - Cruise Altitude: 38000ft - Cruise Speed: 420kts - Descent Rate: 1500ft/min - Descent Speed: 250kts Options: - Use NATs: yes - Use PACOTS: yes - Use low airways: no - Use high airways: yes

Route

ENEV BDO UM609 STO UZ107 KVB ENKB

ID Type Via Altitude Latitude Longitude Leg Dist Tot Dist Heading (true) Name
O ENEV APT - 0 ft / 0 m 68.49130˚ 16.67811˚ - 0 nm - EVENES
BDO VOR - 32,200 ft / 9,815 m 67.26670˚ 14.36486˚ 90 nm 90 nm 217° / 214° BODO VOR-DME
STO VOR UM609 (AWY-HI) 34,000 ft / 10,363 m 65.96042˚ 12.46945˚ 90 nm 180 nm 211° / 209° STOKKA VOR-DME
KVB VOR UZ107 (AWY-HI) 24,500 ft / 7,468 m 63.11813˚ 7.81054˚ 208 nm 389 nm 217° / 213° KVERNBERGET VOR-DME
O ENKB APT - 0 ft / 0 m 63.11187˚ 7.82453˚ 0 nm 390 nm 135° / 135° KVERNBERGET

Altitude Profile

Advertisement - Login to hide

Weather


0- 5 10 15 20 25 30 35+ Temperature / ° C

Clouds and Precipitation
Forecast for 2017-12-15 06:00 UTC. Updated 2 hours ago

Ground ~20,000 ft ~40,000 ft Winds

ENEV

Details ICAO ENEV (EVE)
Name EVENES
Region Norway
Timezone Europe/Oslo (UTC+1.0)
Stats Elevation 84 ft / 26 m (AMSL)
Location 68.491300° 16.678109°
Runways 1
Magnetic Variation 7.226° E

METAR

ENEV 150620Z 00000KT CAVOK M08/M09 Q0991 RMK WIND 1400FT 14010KT

Decode

TAF

Not found

Departure Runways

ID Width Length Bearing (true) Bearing (mag) Surface Threshold Offset Overrun Length
17 148 ft / 45 m 9,208 ft / 2,807 m 177.60° 170.37° Asphalt 302 ft / 92 m 0 ft / 0 m
35 148 ft / 45 m 9,208 ft / 2,807 m 357.60° 350.37° Asphalt 214 ft / 65 m 925 ft / 282 m

ENKB

Details ICAO ENKB (KSU)
Name KVERNBERGET
Region Norway
Timezone Europe/Oslo (UTC+1.0)
Stats Elevation 204 ft / 62 m (AMSL)
Location 63.111872° 7.824532°
Runways 1
Magnetic Variation 1.984° E

METAR

ENKB 150620Z 07003KT 030V110 9999 FEW028 SCT047 M04/M05 Q0991 RMK WIND 745FT 22005KT

Decode

TAF

Not found

Destination Runways

ID Width Length Bearing (true) Bearing (mag) Surface Threshold Offset Overrun Length
07 148 ft / 45 m 6,192 ft / 1,887 m 71.39° 69.41° Asphalt 197 ft / 60 m 0 ft / 0 m
25 148 ft / 45 m 6,192 ft / 1,887 m 251.42° 249.44° Asphalt 263 ft / 80 m 0 ft / 0 m

Approach Navaids

Runway Type Ident Frequency Range Bearing (true) Bearing (mag) Slope Elevation
07 Localiser KB 110.10 MHz 18 nm / 33 km 71.60° 69.62° - 204 ft / 62 m (AMSL)
07 Glidescope KB 110.10 MHz 10 nm / 19 km 71.41° 69.42° 3.00° 204 ft / 62 m (AMSL)